Map

Track Data

SID SEASON NUMBER BASIN SUBBASIN NAME ISO_TIME NATURE LAT LON WMO_WIND WMO_PRES WMO_AGENCY TRACK_TYPE DIST2LAND LANDFALL IFLAG USA_AGENCY USA_ATCF_ID USA_LAT USA_LON USA_RECORD USA_STATUS USA_WIND USA_PRES USA_SSHS USA_R34_NE USA_R34_SE USA_R34_SW USA_R34_NW USA_R50_NE USA_R50_SE USA_R50_SW USA_R50_NW USA_R64_NE USA_R64_SE USA_R64_SW USA_R64_NW USA_POCI USA_ROCI USA_RMW USA_EYE TOKYO_LAT TOKYO_LON TOKYO_GRADE TOKYO_WIND TOKYO_PRES TOKYO_R50_DIR TOKYO_R50_LONG TOKYO_R50_SHORT TOKYO_R30_DIR TOKYO_R30_LONG TOKYO_R30_SHORT TOKYO_LAND CMA_LAT CMA_LON CMA_CAT CMA_WIND CMA_PRES HKO_LAT HKO_LON HKO_CAT HKO_WIND HKO_PRES NEWDELHI_LAT NEWDELHI_LON NEWDELHI_GRADE NEWDELHI_WIND NEWDELHI_PRES NEWDELHI_CI NEWDELHI_DP NEWDELHI_POCI REUNION_LAT REUNION_LON REUNION_TYPE REUNION_WIND REUNION_PRES REUNION_TNUM REUNION_CI REUNION_RMW REUNION_R34_NE REUNION_R34_SE REUNION_R34_SW REUNION_R34_NW REUNION_R50_NE REUNION_R50_SE REUNION_R50_SW REUNION_R50_NW REUNION_R64_NE REUNION_R64_SE REUNION_R64_SW REUNION_R64_NW BOM_LAT BOM_LON BOM_TYPE BOM_WIND BOM_PRES BOM_TNUM BOM_CI BOM_RMW BOM_R34_NE BOM_R34_SE BOM_R34_SW BOM_R34_NW BOM_R50_NE BOM_R50_SE BOM_R50_SW BOM_R50_NW BOM_R64_NE BOM_R64_SE BOM_R64_SW BOM_R64_NW BOM_ROCI BOM_POCI BOM_EYE BOM_POS_METHOD BOM_PRES_METHOD NADI_LAT NADI_LON NADI_CAT NADI_WIND NADI_PRES WELLINGTON_LAT WELLINGTON_LON WELLINGTON_WIND WELLINGTON_PRES DS824_LAT DS824_LON DS824_STAGE DS824_WIND DS824_PRES TD9636_LAT TD9636_LON TD9636_STAGE TD9636_WIND TD9636_PRES TD9635_LAT TD9635_LON TD9635_WIND TD9635_PRES TD9635_ROCI NEUMANN_LAT NEUMANN_LON NEUMANN_CLASS NEUMANN_WIND NEUMANN_PRES MLC_LAT MLC_LON MLC_CLASS MLC_WIND MLC_PRES USA_GUST BOM_GUST BOM_GUST_PER REUNION_GUST REUNION_GUST_PER USA_SEAHGT USA_SEARAD_NE USA_SEARAD_SE USA_SEARAD_SW USA_SEARAD_NW STORM_SPEED STORM_DIR
1978363S10136 1979 137 SP EA PETER 1978-12-29 00:00:00 TS -10.0000 135.600 spur-merge 235 176 O________OO___ jtwc_sh SH051979 -10.0000 135.600 35 0 -10.0000 135.600 TC 35 -10.0000 135.600 1 14 145
1978363S10136 1979 137 SP EA PETER 1978-12-29 03:00:00 TS -10.5600 135.995 spur-merge 166 101 P________PP___ SH051979 -10.5626 136.000 35 0 -10.5626 136.000 TC 35 -10.5549 135.986 1 14 144
1978363S10136 1979 137 SP EA PETER 1978-12-29 06:00:00 TS -11.1663 136.454 25 1000 bom spur-merge 89 55 O_____O__OP___ jtwc_sh SH051979 -11.1000 136.400 35 0 -11.8000 137.000 20 25 1000 2.00000 -11.1000 136.400 TC 35 -11.0877 136.379 1 45 45 14 143
1978363S10136 1979 137 SP EA PETER 1978-12-29 09:00:00 TS -11.6516 136.840 spur-merge 46 35 P_____P__PP___ SH051979 -11.5874 136.800 37 0 -12.0582 137.119 20 27 999 -11.5874 136.800 TC 37 -11.5767 136.782 1 12 141
1978363S10136 1979 137 SP EA PETER 1978-12-29 12:00:00 TS -12.0600 137.200 30 998 bom spur-merge 31 31 O_____O__OO___ jtwc_sh SH051979 -12.0000 137.200 40 0 -12.3000 137.200 20 30 998 2.50000 -12.0000 137.200 TC 40 -12.0000 137.200 1 45 45 10 138
1978363S10136 1979 137 SP EA PETER 1978-12-29 15:00:00 TS -12.3810 137.515 spur-merge 55 55 P_____P__PP___ SH051979 -12.3374 137.600 42 0 -12.5070 137.229 20 31 996 -12.3374 137.600 TC 42 -12.3422 137.633 1 8 132
1978363S10136 1979 137 SP EA PETER 1978-12-29 18:00:00 TS -12.6162 137.837 spur-merge 93 93 O_____P__OP___ jtwc_sh SH051979 -12.6000 138.000 45 0 -12.6521 137.289 20 33 995 -12.6000 138.000 TC 45 -12.6126 138.060 1 8 124
1978363S10136 1979 137 SP EA PETER 1978-12-29 20:00:00 TS -12.7452 138.074 35 995 bom spur-merge 127 131 P_____O__PP___ SH051979 -12.7600 138.283 46 0 -12.7000 137.400 30 35 995 3.00000 -12.7600 138.283 TC 46 -12.7606 138.330 1 49 49 8 117
1978363S10136 1979 137 SP EA PETER 1978-12-29 21:00:00 TS -12.7973 138.198 spur-merge 141 141 P_____P__PP___ SH051979 -12.8300 138.423 47 0 -12.7025 137.490 30 36 995 -12.8300 138.423 TC 47 -12.8267 138.458 1 8 112
1978363S10136 1979 137 SP EA PETER 1978-12-29 23:00:00 TS -12.8865 138.440 40 995 bom spur-merge 166 166 P_____O__PP___ SH051979 -12.9500 138.684 49 0 -12.7000 137.700 30 40 995 3.00000 -12.9500 138.684 TC 49 -12.9458 138.694 1 55 55 6 112
1978363S10136 1979 137 SP EA PETER 1978-12-30 00:00:00 TS -12.9030 138.472 spur-merge 176 176 O_____P__OO_O_ jtwc_sh SH051979 -13.0000 138.800 50 0 -12.7135 137.800 30 41 994 -13.0000 138.800 TC 50 -13.0000 138.800 2 35 -12.7000 137.900 TC 40 995 4 114
1978363S10136 1979 137 SP EA PETER 1978-12-30 03:00:00 TS -12.9978 138.698 spur-merge 200 200 P_____P__PP_P_ SH051979 -13.1074 139.088 50 0 -12.8037 138.100 30 46 991 -13.1074 139.088 TC 50 -13.1606 139.062 2 36 -12.7801 138.202 TC 42 992 4 115
1978363S10136 1979 137 SP EA PETER 1978-12-30 05:00:00 TS -13.0595 138.819 50 990 bom spur-merge 214 214 P_____O__PP_P_ SH051979 -13.1662 139.236 50 0 -12.9000 138.300 30 50 990 3.50000 -13.1662 139.236 TC 50 -13.2477 139.204 2 37 -12.8531 138.402 TC 44 990 69 69 4 121
1978363S10136 1979 137 SP EA PETER 1978-12-30 06:00:00 TS -13.0904 138.861 spur-merge 224 224 O_____P__OP_O_ jtwc_sh SH051979 -13.2000 139.300 50 0 -12.9552 138.397 30 50 990 -13.2000 139.300 TC 50 -13.2871 139.268 2 37 -12.9000 138.500 TC 45 990 5 126
1978363S10136 1979 137 SP EA PETER 1978-12-30 09:00:00 TS -13.2547 139.091 spur-merge 244 244 P_____P__PP_P_ SH051979 -13.3500 139.465 50 0 -13.1557 138.692 30 53 990 -13.3500 139.465 TC 50 -13.3951 139.440 2 38 -13.0849 138.793 TC 45 990 6 127
1978363S10136 1979 137 SP EA PETER 1978-12-30 11:00:00 TS -13.3715 139.241 55 990 bom spur-merge 252 244 P_____O__PP_P_ SH051979 -13.4531 139.555 50 0 -13.3000 138.900 30 55 990 4.00000 -13.4531 139.555 TC 50 -13.4644 139.547 2 39 -13.2281 138.994 TC 45 990 75 75 6 128
1978363S10136 1979 137 SP EA PETER 1978-12-30 12:00:00 TS -13.4278 139.318 spur-merge 244 218 O_____P__OO_O_ jtwc_sh SH051979 -13.5000 139.600 50 0 -13.3667 139.011 30 55 989 -13.5000 139.600 TC 50 -13.5000 139.600 2 40 -13.3000 139.100 TC 45 990 6 123
1978363S10136 1979 137 SP EA PETER 1978-12-30 15:00:00 TS -13.5798 139.563 spur-merge 208 195 P_____P__PP_P_ SH051979 -13.6000 139.743 47 0 -13.5666 139.361 30 58 986 -13.6000 139.743 TC 47 -13.6125 139.742 2 42 -13.5000 139.450 TC 50 987 6 122
1978363S10136 1979 137 SP EA PETER 1978-12-30 17:00:00 TS -13.6803 139.732 60 985 bom spur-merge 195 185 P_____O__PP_P_ SH051979 -13.6636 139.844 45 0 -13.7000 139.600 30 60 985 4.00000 -13.6636 139.844 TC 45 -13.6880 139.834 2 44 -13.6333 139.686 TC 53 985 84 84 6 122
1978363S10136 1979 137 SP EA PETER 1978-12-30 18:00:00 TS -13.7327 139.817 spur-merge 185 151 O_____P__OP_O_ jtwc_sh SH051979 -13.7000 139.900 45 0 -13.7693 139.719 30 61 985 -13.7000 139.900 TC 45 -13.7269 139.883 2 45 -13.7000 139.800 TC 55 985 6 124
1978363S10136 1979 137 SP EA PETER 1978-12-30 21:00:00 TS -13.9020 140.069 spur-merge 151 130 P_____P__PP_P_ SH051979 -13.8349 140.063 42 0 -13.9746 140.075 30 66 985 -13.8349 140.063 TC 42 -13.8530 140.058 2 47 -13.9074 140.100 TC 55 985 6 124
1978363S10136 1979 137 SP EA PETER 1978-12-30 23:00:00 TS -14.0182 140.252 70 985 bom spur-merge 130 130 P_____O__PP_P_ SH051979 -13.9416 140.208 40 0 -14.1000 140.300 40 70 985 4.50000 -13.9416 140.208 TC 40 -13.9481 140.210 2 49 -14.0390 140.297 TC 55 985 99 99 6 122
1978363S10136 1979 137 SP EA PETER 1978-12-31 00:00:00 TS -14.0759 140.351 spur-merge 120 92 O_____P__OO_O_ jtwc_sh SH051979 -14.0000 140.300 40 0 -14.1557 140.403 40 71 984 -14.0000 140.300 TC 40 -14.0000 140.300 2 50 -14.1000 140.400 TC 55 985 7 119
1978363S10136 1979 137 SP EA PETER 1978-12-31 03:00:00 TS -14.2499 140.685 spur-merge 92 65 P_____P__PP_P_ SH051979 -14.1925 140.663 40 0 -14.3053 140.698 40 76 981 -14.1925 140.663 TC 40 -14.1867 140.645 2 50 -14.2575 140.743 TC 57 982 8 117
1978363S10136 1979 137 SP EA PETER 1978-12-31 05:00:00 TS -14.3659 140.932 80 980 bom spur-merge 65 55 P_____O__PP_P_ SH051979 -14.3307 140.950 40 0 -14.4000 140.900 40 80 980 5.00000 4 -14.3307 140.950 TC 40 -14.3228 140.915 2 50 -14.3526 140.981 TC 59 980 110 110 8 116
1978363S10136 1979 137 SP EA PETER 1978-12-31 06:00:00 TS -14.4242 141.061 spur-merge 44 15 O_____P__OP_O_ jtwc_sh SH051979 -14.4000 141.100 40 0 -14.4526 141.008 40 80 980 -14.4000 141.100 TC 40 -14.3927 141.060 2 50 -14.4000 141.100 TC 60 980 8 115
1978363S10136 1979 137 SP EA PETER 1978-12-31 09:00:00 TS -14.5983 141.452 spur-merge 10 0 P_____P__PP_P_ SH051979 -14.6074 141.535 40 0 -14.6078 141.353 40 80 983 -14.6074 141.535 TC 40 -14.6022 141.520 2 50 -14.5574 141.443 TC 57 983 8 114
1978363S10136 1979 137 SP EA PETER 1978-12-31 11:00:00 TS -14.7065 141.728 80 986 bom spur-merge 0 0 P_____O__PP_P_ SH051979 -14.7390 141.842 40 0 -14.7000 141.600 40 80 986 5.00000 -14.7390 141.842 TC 40 -14.7363 141.839 2 50 -14.6557 141.678 TC 55 985 110 110 9 111
1978363S10136 1979 137 SP EA PETER 1978-12-31 12:00:00 TS -14.7565 141.869 spur-merge 0 0 O_____P__OO_O_ jtwc_sh SH051979 -14.8000 142.000 40 0 -14.7389 141.715 40 76 986 -14.8000 142.000 TC 40 -14.8000 142.000 2 50 -14.7000 141.800 TC 55 986 9 108
1978363S10136 1979 137 SP EA PETER 1978-12-31 15:00:00 TS -14.8898 142.318 spur-merge 0 0 P_____P__PP_P_ SH051979 -14.9575 142.500 37 0 -14.8385 142.089 40 66 987 -14.9575 142.500 TC 37 -14.9727 142.485 2 47 -14.8075 142.193 TC 52 987 9 106
1978363S10136 1979 137 SP EA PETER 1978-12-31 17:00:00 TS -14.9707 142.634 60 988 bom spur-merge 0 0 P_____O__PP_P_ SH051979 -15.0526 142.836 35 0 -14.9000 142.400 30 60 988 -15.0526 142.836 TC 35 -15.0794 142.815 2 45 -14.8693 142.464 TC 50 987 84 84 10 105
1978363S10136 1979 137 SP EA PETER 1978-12-31 18:00:00 TS -15.0115 142.799 spur-merge 0 0 O_____P__OP_O_ jtwc_sh SH051979 -15.1000 143.000 35 0 -14.9388 142.614 30 55 988 -15.1000 143.000 TC 35 -15.1303 142.980 2 45 -14.9000 142.600 TC 50 988 10 105
1978363S10136 1979 137 SP EA PETER 1978-12-31 21:00:00 TS -15.1368 143.287 spur-merge 0 0 P_____P__PP_P_ SH051979 -15.2574 143.473 35 0 -15.0496 143.318 30 43 989 -15.2574 143.473 TC 35 -15.2727 143.460 2 42 -15.0149 143.000 TC 45 989 9 105
1978363S10136 1979 137 SP EA PETER 1978-12-31 23:00:00 TS -15.2086 143.584 35 990 bom spur-merge 0 0 P_____O__PP_P_ SH051979 -15.3557 143.764 35 0 -15.1000 143.700 30 35 990 -15.3557 143.764 TC 35 -15.3592 143.759 2 40 -15.0780 143.267 TC 41 989 49 49 8 104
1978363S10136 1979 137 SP EA PETER 1979-01-01 00:00:00 TS -15.2378 143.710 spur-merge 0 0 O_____P__OO_O_ jtwc_sh SH051979 -15.4000 143.900 35 0 -15.1085 143.794 30 35 990 -15.4000 143.900 TC 35 -15.4000 143.900 2 40 -15.1000 143.400 TC 40 990 7 102
1978363S10136 1979 137 SP EA PETER 1979-01-01 03:00:00 TS -15.2996 144.044 spur-merge 0 0 P_____P__PP_P_ SH051979 -15.5074 144.273 35 0 -15.1026 143.915 30 35 990 -15.5074 144.273 TC 35 -15.5139 144.277 2 40 -15.1074 143.800 TC 37 990 6 100
1978363S10136 1979 137 SP EA PETER 1979-01-01 05:00:00 TS -15.3343 144.255 35 990 bom spur-merge 0 0 P_____O__PP_P_ SH051979 -15.5692 144.494 35 0 -15.1000 144.000 30 35 990 -15.5692 144.494 TC 35 -15.5821 144.503 2 40 -15.0995 144.067 TC 35 990 49 49 6 100
1978363S10136 1979 137 SP EA PETER 1979-01-01 06:00:00 TS -15.3549 144.369 spur-merge 0 0 O_____P__OP_O_ jtwc_sh SH051979 -15.6000 144.600 35 0 -15.1148 144.106 30 35 990 -15.6000 144.600 TC 35 -15.6145 144.610 2 40 -15.1000 144.200 TC 35 990 7 102
1978363S10136 1979 137 SP EA PETER 1979-01-01 09:00:00 TS -15.4275 144.729 spur-merge 0 0 P_____P__PP_P_ SH051979 -15.7000 144.915 35 0 -15.1728 144.510 30 35 991 -15.7000 144.915 TC 35 -15.7078 144.914 2 40 -15.1425 144.607 TC 32 991 7 102
1978363S10136 1979 137 SP EA PETER 1979-01-01 11:00:00 TS -15.4767 144.962 35 992 bom spur-merge 0 0 P_____O__PP_P_ SH051979 -15.7666 145.108 35 0 -15.2000 144.800 30 35 992 -15.7666 145.108 TC 35 -15.7690 145.106 2 40 -15.1807 144.872 TC 30 991 49 49 7 102
1978363S10136 1979 137 SP EA PETER 1979-01-01 12:00:00 TS -15.4994 145.073 spur-merge 0 0 O_____P__OO_O_ jtwc_sh SH051979 -15.8000 145.200 35 0 -15.1965 144.939 30 35 992 -15.8000 145.200 TC 35 -15.8000 145.200 2 40 -15.2000 145.000 TC 30 992 7 103
1978363S10136 1979 137 SP EA PETER 1979-01-01 14:00:00 TS -15.5504 145.295 35 994 bom spur-merge 0 0 P_____O__PP_P_ SH051979 -15.8666 145.369 35 0 -15.2000 145.200 30 35 994 2.50000 -15.8666 145.369 TC 35 -15.8635 145.387 2 39 -15.2280 145.285 TC 33 992 49 49 7 104
1978363S10136 1979 137 SP EA PETER 1979-01-01 15:00:00 TS -15.5797 145.400 spur-merge 10 10 P_____P__PP_P_ SH051979 -15.8999 145.450 35 0 -15.2200 145.324 30 35 993 -15.8999 145.450 TC 35 -15.8959 145.479 2 38 -15.2426 145.417 TC 35 992 6 109
1978363S10136 1979 137 SP EA PETER 1979-01-01 17:00:00 TS -15.6456 145.580 35 993 bom spur-merge 32 30 P_____O__PP_P_ SH051979 -15.9666 145.614 35 0 -15.3000 145.500 30 35 993 2.50000 -15.9666 145.614 TC 35 -15.9619 145.663 2 37 -15.2777 145.632 TC 38 992 49 49 5 113
1978363S10136 1979 137 SP EA PETER 1979-01-01 18:00:00 TS -15.6832 145.649 spur-merge 30 30 O_____P__OP_O_ jtwc_sh SH051979 -16.0000 145.700 35 0 -15.3696 145.529 30 35 993 -16.0000 145.700 TC 35 -15.9954 145.755 2 37 -15.3000 145.700 TC 40 993 4 125
1978363S10136 1979 137 SP EA PETER 1979-01-01 20:00:00 TS -15.7615 145.749 35 994 bom spur-merge 33 44 P_____O__PP_P_ SH051979 -16.0721 145.898 35 0 -15.5000 145.500 30 35 994 2.50000 -16.0721 145.898 TC 35 -16.0631 145.937 2 36 -15.3750 145.730 TC 40 993 49 49 3 129
1978363S10136 1979 137 SP EA PETER 1979-01-01 21:00:00 TS -15.7920 145.787 spur-merge 44 44 P_____P__PP_P_ SH051979 -16.1075 146.000 35 0 -15.5212 145.475 30 35 994 -16.1075 146.000 TC 35 -16.0972 146.028 2 36 -15.4149 145.710 TC 40 994 2 128
1978363S10136 1979 137 SP EA PETER 1979-01-01 23:00:00 TS -15.8339 145.848 35 995 bom spur-merge 44 54 P_____O__PP_P_ SH051979 -16.1724 146.203 35 0 -15.5000 145.400 30 35 995 2.50000 -16.1724 146.203 TC 35 -16.1657 146.209 2 35 -15.4812 145.638 TC 40 994 49 49 2 120
1978363S10136 1979 137 SP EA PETER 1979-01-02 00:00:00 TS -15.8449 145.877 spur-merge 54 48 O_____P__OO_O_ jtwc_sh SH051979 -16.2000 146.300 35 0 -15.4691 145.361 30 35 995 -16.2000 146.300 TC 35 -16.2000 146.300 2 35 -15.5000 145.600 TC 40 995 2 99
1978363S10136 1979 137 SP EA PETER 1979-01-02 02:00:00 TS -15.8472 145.941 35 995 bom spur-merge 54 54 P_____O__P__P_ SH051979 -16.2432 146.479 35 0 -15.4000 145.300 30 35 995 2.50000 -16.2432 146.479 TC 35 2 -15.4795 145.556 TC 40 995 49 49 1 0
1978363S10136 1979 137 SP EA PETER 1979-01-02 03:00:00 TS -15.7874 145.892 spur-merge 54 48 P_____P__P__P_ SH051979 -16.2600 146.563 35 0 -15.3899 145.290 30 35 995 -16.2600 146.563 TC 35 2 -15.4575 145.535 TC 40 995 4 323
1978363S10136 1979 137 SP EA PETER 1979-01-02 05:00:00 TS -15.6986 145.827 35 995 bom spur-merge 48 42 P_____O__P__P_ SH051979 -16.2877 146.722 35 0 -15.4000 145.300 30 35 995 2.50000 -16.2877 146.722 TC 35 2 -15.4131 145.505 TC 40 995 49 49 6 313
1978363S10136 1979 137 SP EA PETER 1979-01-02 06:00:00 TS -15.5804 145.663 spur-merge 42 15 O_____P__O__O_ jtwc_sh SH051979 -16.3000 146.800 35 0 -15.4152 145.313 30 35 995 -16.3000 146.800 TC 35 2 -15.4000 145.500 TC 40 995 7 301
1978363S10136 1979 137 SP EA PETER 1979-01-02 09:00:00 TS -15.4655 145.425 spur-merge 15 15 ______P_____P_ SH051979 -1 -15.4815 145.374 30 35 996 TC 2 -15.4575 145.550 TC 37 996 3 294
1978363S10136 1979 137 SP EA PETER 1979-01-02 11:00:00 TS -15.4968 145.460 35 997 bom spur-merge 24 24 ______O_____P_ SH051979 -1 -15.5000 145.400 30 35 997 2.50000 TC 2 -15.4952 145.590 TC 35 996 49 49 1 121
1978363S10136 1979 137 SP EA PETER 1979-01-02 12:00:00 TS -15.4946 145.462 spur-merge 24 10 ______P_____O_ -1 -15.4838 145.387 30 35 996 -15.5000 145.600 TC 35 997 2 327
1978363S10136 1979 137 SP EA PETER 1979-01-02 15:00:00 TS -15.4093 145.402 spur-merge 10 0 ______P_____P_ -1 -15.3830 145.320 30 35 995 -15.4225 145.542 TC 37 995 2 332
1978363S10136 1979 137 SP EA PETER 1979-01-02 17:00:00 TS -15.3275 145.370 35 994 bom spur-merge 0 0 ______O_____P_ -1 -15.3000 145.300 30 35 994 2.00000 -15.3412 145.505 TC 39 994 49 49 3 350
1978363S10136 1979 137 SP EA PETER 1979-01-02 18:00:00 TS -15.2863 145.376 spur-merge 0 0 ______P_____O_ -1 -15.2588 145.327 30 35 994 -15.3000 145.500 TC 40 994 3 35
1978363S10136 1979 137 SP EA PETER 1979-01-02 21:00:00 TS -15.1660 145.488 spur-merge 15 15 ______P_____P_ -1 -15.1430 145.449 30 35 996 -15.1775 145.608 TC 37 996 3 45
1978363S10136 1979 137 SP EA PETER 1979-01-02 23:00:00 TS -15.1108 145.554 35 998 bom spur-merge 31 31 ______O_____P_ -1 -15.1000 145.500 30 35 998 2.00000 -15.1162 145.682 TC 35 997 49 49 2 47
1978363S10136 1979 137 SP EA PETER 1979-01-03 00:00:00 TS -15.0998 145.561 spur-merge 31 24 ______P_____O_ -1 -15.0995 145.484 30 35 997 -15.1000 145.700 TC 35 998 1 250
1978363S10136 1979 137 SP EA PETER 1979-01-03 03:00:00 TS -15.1338 145.481 spur-merge 24 11 ______P_____P_ -1 -15.1504 145.373 30 35 997 -15.1275 145.615 TC 35 997 2 242
1978363S10136 1979 137 SP EA PETER 1979-01-03 05:00:00 TS -15.1843 145.404 35 997 bom spur-merge 11 11 ______O_____P_ -1 -15.2000 145.300 30 35 997 2.00000 -15.1755 145.532 TC 35 997 49 49 2 231
1978363S10136 1979 137 SP EA PETER 1979-01-03 06:00:00 TS -15.2082 145.392 spur-merge 11 0 ______P_____O_ -1 -15.2217 145.280 30 34 997 -15.2000 145.500 TC 35 997 1 0
1978363S10136 1979 137 SP EA PETER 1979-01-03 09:00:00 TS -15.2635 145.393 spur-merge 0 0 ______P_____P_ -1 -15.2726 145.276 30 31 997 -15.2575 145.470 TC 35 997 1 160
1978363S10136 1979 137 SP EA PETER 1979-01-03 11:00:00 TS -15.2910 145.425 30 998 bom spur-merge 0 0 ______O_____P_ -1 -15.3000 145.300 20 30 998 2.00000 -15.2866 145.487 TC 35 997 45 45 2 109
1978363S10136 1979 137 SP EA PETER 1979-01-03 12:00:00 TS -15.3000 145.500 spur-merge 10 ____________O_ -1 20 -15.3000 145.500 TC 35 998 4 98

Digital Typhoon Data and Search

About IBTrACS Database

This database is a web-friendly format of International Best Track Archive for Climate Stewardship (IBTrACS), a global best track data archive curated by NOAA dating back to 1842.

Updated: 2021-10-27